sensor_id;sensor_type;location;lat;lon;timestamp;pressure;altitude;pressure_sealevel;temperature;humidity
22872;BME280;11603;44.910;8.630;2022-08-01T00:01:52;100425.44;;;25.84;93.32
22872;BME280;11603;44.910;8.630;2022-08-01T00:04:17;100429.03;;;25.84;92.78
22872;BME280;11603;44.910;8.630;2022-08-01T00:06:43;100429.47;;;25.88;92.20
22872;BME280;11603;44.910;8.630;2022-08-01T00:09:08;100423.97;;;25.88;91.71
22872;BME280;11603;44.910;8.630;2022-08-01T00:11:34;100425.50;;;25.90;92.10
22872;BME280;11603;44.910;8.630;2022-08-01T00:13:59;100426.13;;;25.92;91.56
22872;BME280;11603;44.910;8.630;2022-08-01T00:16:25;100422.88;;;25.82;94.82
22872;BME280;11603;44.910;8.630;2022-08-01T00:18:51;100424.94;;;25.73;97.22
22872;BME280;11603;44.910;8.630;2022-08-01T00:21:17;100422.31;;;25.65;99.83
22872;BME280;11603;44.910;8.630;2022-08-01T00:23:43;100421.84;;;25.62;99.53
22872;BME280;11603;44.910;8.630;2022-08-01T00:26:13;100430.50;;;25.59;99.32
22872;BME280;11603;44.910;8.630;2022-08-01T00:28:40;100424.84;;;25.67;96.97
22872;BME280;11603;44.910;8.630;2022-08-01T00:31:06;100426.78;;;25.52;98.82
22872;BME280;11603;44.910;8.630;2022-08-01T00:33:32;100416.75;;;25.38;99.54
22872;BME280;11603;44.910;8.630;2022-08-01T00:35:57;100417.16;;;25.56;99.10
22872;BME280;11603;44.910;8.630;2022-08-01T00:38:23;100424.06;;;25.73;97.62
22872;BME280;11603;44.910;8.630;2022-08-01T00:40:48;100418.94;;;25.63;96.48
22872;BME280;11603;44.910;8.630;2022-08-01T00:43:14;100420.66;;;25.50;99.48
22872;BME280;11603;44.910;8.630;2022-08-01T00:45:40;100429.13;;;25.33;100.00
22872;BME280;11603;44.910;8.630;2022-08-01T00:48:06;100431.31;;;25.23;100.00
22872;BME280;11603;44.910;8.630;2022-08-01T00:50:32;100438.16;;;25.13;100.00
22872;BME280;11603;44.910;8.630;2022-08-01T00:52:58;100429.22;;;25.04;100.00
22872;BME280;11603;44.910;8.630;2022-08-01T00:55:24;100428.41;;;24.89;100.00
22872;BME280;11603;44.910;8.630;2022-08-01T00:57:53;100438.31;;;24.75;100.00
22872;BME280;11603;44.910;8.630;2022-08-01T01:00:19;100439.84;;;24.63;100.00
22872;BME280;11603;44.910;8.630;2022-08-01T01:02:45;100436.72;;;24.52;100.00
22872;BME280;11603;44.910;8.630;2022-08-01T01:05:10;100440.97;;;24.54;100.00
22872;BME280;11603;44.910;8.630;2022-08-01T01:07:46;100435.69;;;24.53;100.00
22872;BME280;11603;44.910;8.630;2022-08-01T01:10:25;100437.28;;;24.47;100.00
22872;BME280;11603;44.910;8.630;2022-08-01T01:12:59;100430.50;;;24.43;100.00
22872;BME280;11603;44.910;8.630;2022-08-01T01:15:33;100439.47;;;24.37;100.00
22872;BME280;11603;44.910;8.630;2022-08-01T01:18:24;100438.44;;;24.38;100.00
22872;BME280;11603;44.910;8.630;2022-08-01T01:21:23;100432.69;;;24.33;100.00
22872;BME280;11603;44.910;8.630;2022-08-01T01:27:05;100430.44;;;24.14;100.00
22872;BME280;11603;44.910;8.630;2022-08-01T01:29:37;100431.28;;;24.14;100.00
22872;BME280;11603;44.910;8.630;2022-08-01T01:32:14;100434.25;;;24.13;100.00
22872;BME280;11603;44.910;8.630;2022-08-01T01:34:44;100438.84;;;24.12;100.00
22872;BME280;11603;44.910;8.630;2022-08-01T01:37:14;100440.44;;;24.06;100.00
22872;BME280;11603;44.910;8.630;2022-08-01T01:39:42;100433.91;;;24.07;100.00
22872;BME280;11603;44.910;8.630;2022-08-01T01:42:08;100434.47;;;24.03;100.00
22872;BME280;11603;44.910;8.630;2022-08-01T01:44:34;100441.34;;;23.99;100.00
22872;BME280;11603;44.910;8.630;2022-08-01T01:47:01;100428.16;;;23.88;100.00
22872;BME280;11603;44.910;8.630;2022-08-01T01:49:28;100431.81;;;23.80;100.00
22872;BME280;11603;44.910;8.630;2022-08-01T01:51:56;100436.78;;;23.77;100.00
22872;BME280;11603;44.910;8.630;2022-08-01T01:54:25;100438.00;;;23.74;100.00
22872;BME280;11603;44.910;8.630;2022-08-01T01:56:56;100441.47;;;23.68;100.00
22872;BME280;11603;44.910;8.630;2022-08-01T01:59:25;100436.44;;;23.80;100.00
22872;BME280;11603;44.910;8.630;2022-08-01T02:01:55;100439.88;;;23.96;100.00
22872;BME280;11603;44.910;8.630;2022-08-01T02:04:22;100446.53;;;23.94;100.00
22872;BME280;11603;44.910;8.630;2022-08-01T02:06:50;100446.25;;;23.89;100.00
22872;BME280;11603;44.910;8.630;2022-08-01T02:09:19;100442.06;;;23.78;100.00
22872;BME280;11603;44.910;8.630;2022-08-01T02:11:46;100438.56;;;23.70;100.00
22872;BME280;11603;44.910;8.630;2022-08-01T02:14:13;100440.78;;;23.66;100.00
22872;BME280;11603;44.910;8.630;2022-08-01T02:16:41;100444.59;;;23.65;100.00
22872;BME280;11603;44.910;8.630;2022-08-01T02:19:08;100449.84;;;23.67;100.00
22872;BME280;11603;44.910;8.630;2022-08-01T02:22:18;100451.13;;;23.79;100.00
22872;BME280;11603;44.910;8.630;2022-08-01T02:26:53;100454.81;;;23.86;100.00
22872;BME280;11603;44.910;8.630;2022-08-01T02:29:25;100448.41;;;23.93;100.00
22872;BME280;11603;44.910;8.630;2022-08-01T02:31:54;100449.00;;;24.03;100.00
22872;BME280;11603;44.910;8.630;2022-08-01T02:34:22;100445.19;;;24.13;100.00
22872;BME280;11603;44.910;8.630;2022-08-01T02:36:51;100443.25;;;24.13;100.00
22872;BME280;11603;44.910;8.630;2022-08-01T02:39:20;100450.25;;;23.78;100.00
22872;BME280;11603;44.910;8.630;2022-08-01T02:41:50;100451.41;;;23.61;100.00
22872;BME280;11603;44.910;8.630;2022-08-01T02:44:24;100446.50;;;23.56;100.00
22872;BME280;11603;44.910;8.630;2022-08-01T02:47:03;100453.50;;;23.59;100.00
22872;BME280;11603;44.910;8.630;2022-08-01T02:49:31;100448.09;;;23.74;100.00
22872;BME280;11603;44.910;8.630;2022-08-01T02:51:59;100451.25;;;23.62;100.00
22872;BME280;11603;44.910;8.630;2022-08-01T02:54:27;100453.75;;;23.49;100.00
22872;BME280;11603;44.910;8.630;2022-08-01T02:56:56;100455.53;;;23.34;100.00
22872;BME280;11603;44.910;8.630;2022-08-01T02:59:23;100458.84;;;23.21;100.00
22872;BME280;11603;44.910;8.630;2022-08-01T03:01:54;100461.09;;;23.18;100.00
22872;BME280;11603;44.910;8.630;2022-08-01T03:04:22;100461.25;;;23.16;100.00
22872;BME280;11603;44.910;8.630;2022-08-01T03:06:48;100462.84;;;23.11;100.00
22872;BME280;11603;44.910;8.630;2022-08-01T03:09:14;100465.41;;;23.04;100.00
22872;BME280;11603;44.910;8.630;2022-08-01T03:11:42;100462.91;;;23.03;100.00
22872;BME280;11603;44.910;8.630;2022-08-01T03:14:10;100470.41;;;23.01;100.00
22872;BME280;11603;44.910;8.630;2022-08-01T03:16:38;100470.88;;;23.04;100.00
22872;BME280;11603;44.910;8.630;2022-08-01T03:19:04;100464.56;;;23.04;100.00
22872;BME280;11603;44.910;8.630;2022-08-01T03:21:31;100465.25;;;23.06;100.00
22872;BME280;11603;44.910;8.630;2022-08-01T03:23:58;100464.72;;;23.10;100.00
22872;BME280;11603;44.910;8.630;2022-08-01T03:26:27;100462.78;;;23.19;100.00
22872;BME280;11603;44.910;8.630;2022-08-01T03:28:57;100463.69;;;23.11;100.00
22872;BME280;11603;44.910;8.630;2022-08-01T03:31:24;100469.91;;;22.97;100.00
22872;BME280;11603;44.910;8.630;2022-08-01T03:33:50;100470.09;;;22.96;100.00
22872;BME280;11603;44.910;8.630;2022-08-01T03:36:18;100467.91;;;23.14;100.00
22872;BME280;11603;44.910;8.630;2022-08-01T03:38:47;100465.47;;;23.27;100.00
22872;BME280;11603;44.910;8.630;2022-08-01T03:41:17;100468.19;;;23.27;100.00
22872;BME280;11603;44.910;8.630;2022-08-01T03:44:16;100464.03;;;23.39;100.00
22872;BME280;11603;44.910;8.630;2022-08-01T03:47:02;100462.81;;;23.50;100.00
22872;BME280;11603;44.910;8.630;2022-08-01T03:49:35;100464.13;;;23.54;100.00
22872;BME280;11603;44.910;8.630;2022-08-01T03:52:04;100457.81;;;23.53;100.00
22872;BME280;11603;44.910;8.630;2022-08-01T03:54:35;100469.09;;;23.50;100.00
22872;BME280;11603;44.910;8.630;2022-08-01T03:57:01;100466.72;;;23.47;100.00
22872;BME280;11603;44.910;8.630;2022-08-01T03:59:28;100474.53;;;23.50;100.00
22872;BME280;11603;44.910;8.630;2022-08-01T04:01:55;100465.59;;;23.64;100.00
22872;BME280;11603;44.910;8.630;2022-08-01T04:04:21;100468.63;;;23.70;100.00
22872;BME280;11603;44.910;8.630;2022-08-01T04:06:47;100473.34;;;23.76;100.00
22872;BME280;11603;44.910;8.630;2022-08-01T04:09:16;100476.38;;;23.81;100.00
22872;BME280;11603;44.910;8.630;2022-08-01T04:11:43;100477.75;;;23.77;100.00
22872;BME280;11603;44.910;8.630;2022-08-01T04:14:08;100473.53;;;23.74;100.00
22872;BME280;11603;44.910;8.630;2022-08-01T04:16:34;100480.31;;;23.55;100.00
22872;BME280;11603;44.910;8.630;2022-08-01T04:19:00;100483.78;;;23.18;100.00
22872;BME280;11603;44.910;8.630;2022-08-01T04:21:27;100479.97;;;23.28;100.00
22872;BME280;11603;44.910;8.630;2022-08-01T04:23:56;100484.47;;;24.12;100.00
22872;BME280;11603;44.910;8.630;2022-08-01T04:26:24;100481.41;;;25.03;100.00
22872;BME280;11603;44.910;8.630;2022-08-01T04:28:52;100478.09;;;25.79;100.00
22872;BME280;11603;44.910;8.630;2022-08-01T04:31:20;100484.00;;;26.60;93.48
22872;BME280;11603;44.910;8.630;2022-08-01T04:33:49;100480.16;;;27.29;85.20
22872;BME280;11603;44.910;8.630;2022-08-01T04:36:19;100479.69;;;28.00;79.32
22872;BME280;11603;44.910;8.630;2022-08-01T04:38:51;100487.25;;;28.63;74.27
22872;BME280;11603;44.910;8.630;2022-08-01T04:41:18;100484.50;;;29.34;70.62
22872;BME280;11603;44.910;8.630;2022-08-01T04:43:44;100486.97;;;29.80;66.92
22872;BME280;11603;44.910;8.630;2022-08-01T04:46:10;100479.94;;;30.41;64.28
22872;BME280;11603;44.910;8.630;2022-08-01T04:48:38;100487.81;;;31.17;60.99
22872;BME280;11603;44.910;8.630;2022-08-01T04:51:11;100480.28;;;31.72;58.42
22872;BME280;11603;44.910;8.630;2022-08-01T04:53:38;100481.69;;;32.51;55.53
22872;BME280;11603;44.910;8.630;2022-08-01T04:56:04;100481.94;;;32.96;53.84
22872;BME280;11603;44.910;8.630;2022-08-01T04:58:29;100482.50;;;33.49;52.61
22872;BME280;11603;44.910;8.630;2022-08-01T05:00:55;100489.16;;;33.93;50.81
22872;BME280;11603;44.910;8.630;2022-08-01T05:03:20;100484.81;;;34.48;49.86
22872;BME280;11603;44.910;8.630;2022-08-01T05:05:47;100483.81;;;34.92;48.34
22872;BME280;11603;44.910;8.630;2022-08-01T05:08:12;100484.84;;;35.08;47.72
22872;BME280;11603;44.910;8.630;2022-08-01T05:10:38;100489.22;;;35.20;47.09
22872;BME280;11603;44.910;8.630;2022-08-01T05:13:03;100491.75;;;35.49;46.60
22872;BME280;11603;44.910;8.630;2022-08-01T05:15:29;100490.59;;;35.66;45.88
22872;BME280;11603;44.910;8.630;2022-08-01T05:17:54;100487.63;;;36.05;45.06
22872;BME280;11603;44.910;8.630;2022-08-01T05:20:21;100487.78;;;36.20;44.85
22872;BME280;11603;44.910;8.630;2022-08-01T05:22:46;100488.84;;;36.51;44.25
22872;BME280;11603;44.910;8.630;2022-08-01T05:25:12;100492.06;;;36.75;43.64
22872;BME280;11603;44.910;8.630;2022-08-01T05:27:38;100486.19;;;37.23;43.26
22872;BME280;11603;44.910;8.630;2022-08-01T05:30:09;100491.53;;;37.35;43.05
22872;BME280;11603;44.910;8.630;2022-08-01T05:32:35;100496.22;;;37.14;42.93
22872;BME280;11603;44.910;8.630;2022-08-01T05:35:01;100485.44;;;37.53;42.46
22872;BME280;11603;44.910;8.630;2022-08-01T05:37:26;100493.59;;;37.60;42.51
22872;BME280;11603;44.910;8.630;2022-08-01T05:39:52;100491.03;;;37.53;42.37
22872;BME280;11603;44.910;8.630;2022-08-01T05:42:17;100492.44;;;37.51;42.30
22872;BME280;11603;44.910;8.630;2022-08-01T05:44:43;100486.75;;;37.15;42.91
22872;BME280;11603;44.910;8.630;2022-08-01T05:47:08;100485.41;;;36.81;43.66
22872;BME280;11603;44.910;8.630;2022-08-01T05:49:34;100492.69;;;36.45;43.99
22872;BME280;11603;44.910;8.630;2022-08-01T05:51:59;100490.13;;;35.75;45.10
22872;BME280;11603;44.910;8.630;2022-08-01T05:54:27;100492.00;;;35.20;45.90
22872;BME280;11603;44.910;8.630;2022-08-01T05:56:53;100496.25;;;34.51;46.70
22872;BME280;11603;44.910;8.630;2022-08-01T05:59:18;100501.22;;;33.42;49.31
22872;BME280;11603;44.910;8.630;2022-08-01T06:01:44;100502.06;;;32.91;50.62
22872;BME280;11603;44.910;8.630;2022-08-01T06:04:10;100506.25;;;32.94;50.66
22872;BME280;11603;44.910;8.630;2022-08-01T06:06:35;100507.72;;;33.08;50.41
22872;BME280;11603;44.910;8.630;2022-08-01T06:09:00;100518.66;;;33.03;51.50
22872;BME280;11603;44.910;8.630;2022-08-01T06:11:26;100514.34;;;32.84;51.79
22872;BME280;11603;44.910;8.630;2022-08-01T06:13:51;100507.84;;;32.43;52.70
22872;BME280;11603;44.910;8.630;2022-08-01T06:16:17;100510.97;;;31.82;53.17
22872;BME280;11603;44.910;8.630;2022-08-01T06:18:42;100517.44;;;31.76;53.57
22872;BME280;11603;44.910;8.630;2022-08-01T06:21:08;100518.69;;;31.13;55.40
22872;BME280;11603;44.910;8.630;2022-08-01T06:23:33;100519.09;;;30.74;56.97
22872;BME280;11603;44.910;8.630;2022-08-01T06:25:59;100521.75;;;30.62;58.10
22872;BME280;11603;44.910;8.630;2022-08-01T06:28:24;100523.81;;;30.24;59.21
22872;BME280;11603;44.910;8.630;2022-08-01T06:30:51;100528.06;;;29.95;60.66
22872;BME280;11603;44.910;8.630;2022-08-01T06:33:17;100525.69;;;29.67;61.70
22872;BME280;11603;44.910;8.630;2022-08-01T06:35:42;100526.97;;;29.58;62.22
22872;BME280;11603;44.910;8.630;2022-08-01T06:38:08;100522.22;;;29.40;63.78
22872;BME280;11603;44.910;8.630;2022-08-01T06:40:33;100527.66;;;28.89;66.03
22872;BME280;11603;44.910;8.630;2022-08-01T06:42:59;100529.06;;;29.12;65.70
22872;BME280;11603;44.910;8.630;2022-08-01T06:45:25;100529.16;;;28.92;67.26
22872;BME280;11603;44.910;8.630;2022-08-01T06:47:52;100527.50;;;28.51;69.80
22872;BME280;11603;44.910;8.630;2022-08-01T06:50:18;100530.66;;;28.68;70.72
22872;BME280;11603;44.910;8.630;2022-08-01T06:52:43;100529.81;;;28.68;70.97
22872;BME280;11603;44.910;8.630;2022-08-01T06:55:09;100526.88;;;28.43;72.05
22872;BME280;11603;44.910;8.630;2022-08-01T06:57:35;100514.81;;;28.24;74.23
22872;BME280;11603;44.910;8.630;2022-08-01T07:00:05;100521.56;;;28.02;75.50
22872;BME280;11603;44.910;8.630;2022-08-01T07:02:36;100513.31;;;28.08;73.50
22872;BME280;11603;44.910;8.630;2022-08-01T07:05:02;100511.44;;;28.22;73.24
22872;BME280;11603;44.910;8.630;2022-08-01T07:07:29;100514.38;;;28.07;72.30
22872;BME280;11603;44.910;8.630;2022-08-01T07:09:55;100528.28;;;27.86;78.32
22872;BME280;11603;44.910;8.630;2022-08-01T07:12:21;100519.78;;;27.55;79.19
22872;BME280;11603;44.910;8.630;2022-08-01T07:14:46;100524.53;;;27.33;84.33
22872;BME280;11603;44.910;8.630;2022-08-01T07:17:12;100518.13;;;27.67;80.46
22872;BME280;11603;44.910;8.630;2022-08-01T07:19:37;100513.94;;;27.84;76.94
22872;BME280;11603;44.910;8.630;2022-08-01T07:22:03;100517.28;;;27.79;78.38
22872;BME280;11603;44.910;8.630;2022-08-01T07:24:28;100515.63;;;27.92;74.27
22872;BME280;11603;44.910;8.630;2022-08-01T07:26:54;100509.72;;;27.95;74.84
22872;BME280;11603;44.910;8.630;2022-08-01T07:29:26;100506.31;;;28.06;73.74
22872;BME280;11603;44.910;8.630;2022-08-01T07:31:53;100506.75;;;28.03;74.22
22872;BME280;11603;44.910;8.630;2022-08-01T07:34:19;100502.31;;;28.02;74.19
22872;BME280;11603;44.910;8.630;2022-08-01T07:36:45;100503.63;;;28.19;72.33
22872;BME280;11603;44.910;8.630;2022-08-01T07:39:10;100501.28;;;28.29;75.06
22872;BME280;11603;44.910;8.630;2022-08-01T07:41:36;100501.28;;;28.36;71.37
22872;BME280;11603;44.910;8.630;2022-08-01T07:44:01;100500.44;;;28.42;69.46
22872;BME280;11603;44.910;8.630;2022-08-01T07:46:28;100504.22;;;28.47;69.97
22872;BME280;11603;44.910;8.630;2022-08-01T07:48:55;100494.88;;;28.61;69.62
22872;BME280;11603;44.910;8.630;2022-08-01T07:51:21;100502.91;;;28.63;68.50
22872;BME280;11603;44.910;8.630;2022-08-01T07:53:47;100505.03;;;28.61;66.88
22872;BME280;11603;44.910;8.630;2022-08-01T07:56:16;100491.28;;;28.61;66.96
22872;BME280;11603;44.910;8.630;2022-08-01T07:58:41;100504.19;;;28.54;67.61
22872;BME280;11603;44.910;8.630;2022-08-01T08:01:07;100497.19;;;28.58;67.26
22872;BME280;11603;44.910;8.630;2022-08-01T08:03:33;100494.03;;;28.54;67.56
22872;BME280;11603;44.910;8.630;2022-08-01T08:05:58;100499.75;;;28.59;67.41
22872;BME280;11603;44.910;8.630;2022-08-01T08:08:24;100495.94;;;28.67;66.16
22872;BME280;11603;44.910;8.630;2022-08-01T08:10:50;100492.31;;;28.80;66.46
22872;BME280;11603;44.910;8.630;2022-08-01T08:13:15;100502.06;;;28.69;66.68
22872;BME280;11603;44.910;8.630;2022-08-01T08:15:41;100493.44;;;28.52;66.37
22872;BME280;11603;44.910;8.630;2022-08-01T08:18:06;100499.31;;;28.69;66.40
22872;BME280;11603;44.910;8.630;2022-08-01T08:20:32;100498.28;;;28.77;66.42
22872;BME280;11603;44.910;8.630;2022-08-01T08:22:58;100494.88;;;28.81;66.25
22872;BME280;11603;44.910;8.630;2022-08-01T08:25:24;100500.53;;;28.99;65.63
22872;BME280;11603;44.910;8.630;2022-08-01T08:27:51;100496.03;;;29.12;64.73
22872;BME280;11603;44.910;8.630;2022-08-01T08:30:19;100505.97;;;29.19;63.81
22872;BME280;11603;44.910;8.630;2022-08-01T08:33:33;100497.91;;;29.18;63.83
22872;BME280;11603;44.910;8.630;2022-08-01T08:35:59;100492.59;;;29.16;63.84
22872;BME280;11603;44.910;8.630;2022-08-01T08:38:25;100490.50;;;29.18;63.08
22872;BME280;11603;44.910;8.630;2022-08-01T08:44:05;100485.50;;;29.46;62.32
22872;BME280;11603;44.910;8.630;2022-08-01T08:46:32;100485.25;;;29.48;62.02
22872;BME280;11603;44.910;8.630;2022-08-01T08:48:59;100480.56;;;29.55;61.90
22872;BME280;11603;44.910;8.630;2022-08-01T08:51:26;100484.53;;;29.66;61.26
22872;BME280;11603;44.910;8.630;2022-08-01T08:53:56;100477.06;;;29.73;60.90
22872;BME280;11603;44.910;8.630;2022-08-01T08:56:26;100481.00;;;29.83;60.93
22872;BME280;11603;44.910;8.630;2022-08-01T08:58:55;100479.25;;;29.89;60.03
22872;BME280;11603;44.910;8.630;2022-08-01T09:01:21;100481.16;;;29.95;59.18
22872;BME280;11603;44.910;8.630;2022-08-01T09:03:49;100483.19;;;30.06;59.73
22872;BME280;11603;44.910;8.630;2022-08-01T09:06:21;100484.00;;;30.13;59.01
22872;BME280;11603;44.910;8.630;2022-08-01T09:08:47;100483.34;;;30.11;56.26
22872;BME280;11603;44.910;8.630;2022-08-01T09:16:43;100481.44;;;30.37;56.65
22872;BME280;11603;44.910;8.630;2022-08-01T09:19:18;100476.25;;;30.47;56.20
22872;BME280;11603;44.910;8.630;2022-08-01T09:21:57;100479.59;;;30.55;55.94
22872;BME280;11603;44.910;8.630;2022-08-01T09:24:30;100475.91;;;30.61;55.39
22872;BME280;11603;44.910;8.630;2022-08-01T09:26:56;100473.31;;;30.66;54.78
22872;BME280;11603;44.910;8.630;2022-08-01T09:29:28;100470.38;;;30.80;53.50
22872;BME280;11603;44.910;8.630;2022-08-01T09:31:55;100470.09;;;30.88;54.04
22872;BME280;11603;44.910;8.630;2022-08-01T09:34:29;100471.91;;;30.94;52.15
22872;BME280;11603;44.910;8.630;2022-08-01T09:36:58;100470.09;;;31.06;51.70
22872;BME280;11603;44.910;8.630;2022-08-01T09:39:33;100468.94;;;31.13;50.80
22872;BME280;11603;44.910;8.630;2022-08-01T09:42:18;100466.34;;;31.19;51.73
22872;BME280;11603;44.910;8.630;2022-08-01T09:44:44;100463.84;;;31.29;50.27
22872;BME280;11603;44.910;8.630;2022-08-01T09:47:11;100467.25;;;31.42;49.96
22872;BME280;11603;44.910;8.630;2022-08-01T09:52:54;100454.28;;;31.61;47.93
22872;BME280;11603;44.910;8.630;2022-08-01T09:55:22;100454.09;;;31.56;47.55
22872;BME280;11603;44.910;8.630;2022-08-01T09:58:02;100449.84;;;31.72;47.87
22872;BME280;11603;44.910;8.630;2022-08-01T10:00:30;100448.16;;;31.82;48.24
22872;BME280;11603;44.910;8.630;2022-08-01T10:02:56;100443.72;;;31.93;47.32
22872;BME280;11603;44.910;8.630;2022-08-01T10:05:38;100443.63;;;32.00;47.66
22872;BME280;11603;44.910;8.630;2022-08-01T10:13:34;100437.91;;;32.13;45.36
22872;BME280;11603;44.910;8.630;2022-08-01T10:16:00;100428.50;;;32.14;44.59
22872;BME280;11603;44.910;8.630;2022-08-01T10:18:28;100432.34;;;32.36;44.92
22872;BME280;11603;44.910;8.630;2022-08-01T10:20:56;100430.41;;;32.48;45.48
22872;BME280;11603;44.910;8.630;2022-08-01T10:23:24;100432.13;;;32.37;44.66
22872;BME280;11603;44.910;8.630;2022-08-01T10:25:53;100418.50;;;32.48;44.56
22872;BME280;11603;44.910;8.630;2022-08-01T10:28:24;100419.69;;;32.63;45.17
22872;BME280;11603;44.910;8.630;2022-08-01T10:30:51;100420.53;;;32.64;44.58
22872;BME280;11603;44.910;8.630;2022-08-01T10:33:22;100416.91;;;32.63;44.29
22872;BME280;11603;44.910;8.630;2022-08-01T10:35:48;100415.44;;;32.84;44.53
22872;BME280;11603;44.910;8.630;2022-08-01T10:38:14;100405.09;;;32.79;44.51
22872;BME280;11603;44.910;8.630;2022-08-01T10:40:41;100406.06;;;32.85;43.68
22872;BME280;11603;44.910;8.630;2022-08-01T10:43:09;100412.84;;;33.06;44.17
22872;BME280;11603;44.910;8.630;2022-08-01T10:45:35;100404.88;;;33.09;42.35
22872;BME280;11603;44.910;8.630;2022-08-01T10:50:53;100394.13;;;33.41;42.62
22872;BME280;11603;44.910;8.630;2022-08-01T10:53:22;100392.81;;;33.44;41.67
22872;BME280;11603;44.910;8.630;2022-08-01T10:58:30;100379.78;;;33.61;38.88
22872;BME280;11603;44.910;8.630;2022-08-01T11:01:26;100379.41;;;33.69;38.40
22872;BME280;11603;44.910;8.630;2022-08-01T11:11:59;100353.97;;;34.27;39.76
22872;BME280;11603;44.910;8.630;2022-08-01T11:14:27;100355.97;;;34.15;39.93
22872;BME280;11603;44.910;8.630;2022-08-01T11:16:53;100355.00;;;34.21;39.67
22872;BME280;11603;44.910;8.630;2022-08-01T11:19:18;100342.47;;;34.40;39.71
22872;BME280;11603;44.910;8.630;2022-08-01T11:27:30;100329.09;;;34.37;40.16
22872;BME280;11603;44.910;8.630;2022-08-01T11:33:16;100325.84;;;34.67;39.56
22872;BME280;11603;44.910;8.630;2022-08-01T11:47:13;100311.38;;;35.14;38.15
22872;BME280;11603;44.910;8.630;2022-08-01T11:58:26;100294.50;;;34.94;36.69
22872;BME280;11603;44.910;8.630;2022-08-01T12:00:53;100277.66;;;35.32;37.08
22872;BME280;11603;44.910;8.630;2022-08-01T12:06:00;100276.06;;;35.41;37.88
22872;BME280;11603;44.910;8.630;2022-08-01T12:08:29;100262.28;;;35.24;38.35
22872;BME280;11603;44.910;8.630;2022-08-01T12:10:56;100265.25;;;35.50;37.91
22872;BME280;11603;44.910;8.630;2022-08-01T12:13:22;100261.13;;;35.52;39.49
22872;BME280;11603;44.910;8.630;2022-08-01T12:15:48;100260.31;;;35.57;39.00
22872;BME280;11603;44.910;8.630;2022-08-01T12:18:15;100251.41;;;35.97;38.17
22872;BME280;11603;44.910;8.630;2022-08-01T12:20:44;100247.84;;;36.11;37.67
22872;BME280;11603;44.910;8.630;2022-08-01T12:31:37;100231.31;;;36.52;37.04
22872;BME280;11603;44.910;8.630;2022-08-01T12:38:13;100222.38;;;36.50;37.16
22872;BME280;11603;44.910;8.630;2022-08-01T12:41:01;100218.19;;;36.37;37.60
22872;BME280;11603;44.910;8.630;2022-08-01T12:51:46;100208.28;;;37.02;36.41
22872;BME280;11603;44.910;8.630;2022-08-01T12:54:12;100208.00;;;37.04;36.41
22872;BME280;11603;44.910;8.630;2022-08-01T12:56:37;100204.66;;;37.12;36.90
22872;BME280;11603;44.910;8.630;2022-08-01T12:59:19;100191.56;;;37.12;37.72
22872;BME280;11603;44.910;8.630;2022-08-01T13:02:35;100184.31;;;37.21;37.34
22872;BME280;11603;44.910;8.630;2022-08-01T13:05:02;100186.53;;;37.24;36.60
22872;BME280;11603;44.910;8.630;2022-08-01T13:07:45;100183.75;;;37.24;36.58
22872;BME280;11603;44.910;8.630;2022-08-01T13:10:12;100175.38;;;37.24;38.32
22872;BME280;11603;44.910;8.630;2022-08-01T13:12:39;100179.28;;;37.18;38.83
22872;BME280;11603;44.910;8.630;2022-08-01T13:15:22;100177.06;;;37.15;37.03
22872;BME280;11603;44.910;8.630;2022-08-01T13:17:49;100182.34;;;37.27;36.74
22872;BME280;11603;44.910;8.630;2022-08-01T13:20:29;100170.06;;;37.08;37.99
22872;BME280;11603;44.910;8.630;2022-08-01T13:22:57;100164.22;;;37.29;36.58
22872;BME280;11603;44.910;8.630;2022-08-01T13:25:46;100164.78;;;37.16;37.43
22872;BME280;11603;44.910;8.630;2022-08-01T13:28:23;100162.28;;;37.25;37.56
22872;BME280;11603;44.910;8.630;2022-08-01T13:30:59;100159.75;;;36.88;38.38
22872;BME280;11603;44.910;8.630;2022-08-01T13:33:28;100168.97;;;36.78;37.22
22872;BME280;11603;44.910;8.630;2022-08-01T13:36:05;100170.91;;;37.03;36.66
22872;BME280;11603;44.910;8.630;2022-08-01T13:38:30;100171.50;;;37.20;37.06
22872;BME280;11603;44.910;8.630;2022-08-01T13:41:14;100160.31;;;37.30;36.43
22872;BME280;11603;44.910;8.630;2022-08-01T13:43:40;100153.00;;;37.50;36.00
22872;BME280;11603;44.910;8.630;2022-08-01T13:46:06;100148.59;;;37.23;36.69
22872;BME280;11603;44.910;8.630;2022-08-01T13:48:31;100141.06;;;37.29;35.10
22872;BME280;11603;44.910;8.630;2022-08-01T13:50:58;100136.56;;;37.33;35.33
22872;BME280;11603;44.910;8.630;2022-08-01T13:53:24;100133.25;;;36.96;37.32
22872;BME280;11603;44.910;8.630;2022-08-01T13:55:49;100132.38;;;36.55;37.66
22872;BME280;11603;44.910;8.630;2022-08-01T13:58:15;100138.28;;;36.68;36.25
22872;BME280;11603;44.910;8.630;2022-08-01T14:00:40;100135.75;;;37.17;35.89
22872;BME280;11603;44.910;8.630;2022-08-01T14:03:06;100138.00;;;37.20;34.54
22872;BME280;11603;44.910;8.630;2022-08-01T14:05:35;100129.59;;;37.41;35.25
22872;BME280;11603;44.910;8.630;2022-08-01T14:08:00;100143.81;;;37.34;35.15
22872;BME280;11603;44.910;8.630;2022-08-01T14:10:26;100144.09;;;37.38;35.94
22872;BME280;11603;44.910;8.630;2022-08-01T14:12:51;100139.94;;;37.35;36.97
22872;BME280;11603;44.910;8.630;2022-08-01T14:15:17;100138.25;;;37.34;34.24
22872;BME280;11603;44.910;8.630;2022-08-01T14:17:43;100132.63;;;37.44;34.37
22872;BME280;11603;44.910;8.630;2022-08-01T14:20:09;100129.56;;;37.61;32.78
22872;BME280;11603;44.910;8.630;2022-08-01T14:22:36;100127.31;;;37.63;34.00
22872;BME280;11603;44.910;8.630;2022-08-01T14:25:01;100132.34;;;37.51;32.42